createdAt,value
2022-12-18T00:00:48.197Z,101503.38
2022-12-18T00:03:18.691Z,101502.17
2022-12-18T00:05:29.564Z,101501.36
2022-12-18T00:07:40.589Z,101498.54
2022-12-18T00:09:50.597Z,101500.38
2022-12-18T00:14:25.913Z,101500.63
2022-12-18T00:16:36.850Z,101496.77
2022-12-18T00:18:46.760Z,101495.95
2022-12-18T00:20:56.837Z,101495.88
2022-12-18T00:23:07.441Z,101491.92
2022-12-18T00:25:17.748Z,101491.20
2022-12-18T00:27:27.622Z,101495.09
2022-12-18T00:29:37.752Z,101495.67
2022-12-18T00:31:48.716Z,101491.92
2022-12-18T00:34:00.104Z,101492.77
2022-12-18T00:36:12.613Z,101492.41
2022-12-18T00:38:22.140Z,101491.27
2022-12-18T00:40:33.002Z,101489.45
2022-12-18T00:43:00.875Z,101487.88
2022-12-18T00:45:13.177Z,101487.36
2022-12-18T00:47:23.166Z,101489.96
2022-12-18T00:49:33.562Z,101487.48
2022-12-18T00:51:43.347Z,101486.95
2022-12-18T00:53:55.234Z,101485.09
2022-12-18T00:56:05.220Z,101483.46
2022-12-18T00:58:15.716Z,101480.26
2022-12-18T01:00:26.408Z,101476.93
2022-12-18T01:02:36.585Z,101474.86
2022-12-18T01:04:46.676Z,101467.80
2022-12-18T01:06:56.422Z,101469.58
2022-12-18T01:09:06.024Z,101469.77
2022-12-18T01:11:22.471Z,101473.59
2022-12-18T01:13:32.722Z,101473.71
2022-12-18T01:15:43.014Z,101474.51
2022-12-18T01:17:56.704Z,101471.92
2022-12-18T01:20:06.848Z,101474.23
2022-12-18T01:22:17.521Z,101469.92
2022-12-18T01:24:27.676Z,101472.39
2022-12-18T01:26:37.256Z,101468.77
2022-12-18T01:28:47.463Z,101470.36
2022-12-18T01:30:57.030Z,101466.86
2022-12-18T01:33:09.080Z,101466.58
2022-12-18T01:35:19.066Z,101466.96
2022-12-18T01:37:29.640Z,101460.37
2022-12-18T01:39:39.528Z,101459.36
2022-12-18T01:42:05.486Z,101458.61
2022-12-18T01:44:45.026Z,101458.64
2022-12-18T01:46:55.065Z,101461.71
2022-12-18T01:49:05.720Z,101460.69
2022-12-18T01:51:16.601Z,101460.19
2022-12-18T01:53:27.761Z,101457.79
2022-12-18T01:55:44.176Z,101455.52
2022-12-18T01:57:55.276Z,101451.67
2022-12-18T02:00:12.173Z,101453.81
2022-12-18T02:02:25.474Z,101447.67
2022-12-18T02:04:35.779Z,101447.33
2022-12-18T02:06:46.586Z,101448.38
2022-12-18T02:09:11.109Z,101448.58
2022-12-18T02:11:29.051Z,101451.39
2022-12-18T02:13:49.934Z,101456.71
2022-12-18T02:16:09.001Z,101454.80
2022-12-18T02:18:24.177Z,101456.69
2022-12-18T02:20:39.182Z,101455.54
2022-12-18T02:23:00.772Z,101451.16
2022-12-18T02:25:24.260Z,101446.30
2022-12-18T02:27:39.450Z,101437.47
2022-12-18T02:29:58.331Z,101431.63
2022-12-18T02:32:16.820Z,101433.02
2022-12-18T02:34:30.007Z,101431.91
2022-12-18T02:36:43.531Z,101438.71
2022-12-18T02:38:54.801Z,101436.84
2022-12-18T02:41:04.961Z,101436.84
2022-12-18T02:43:17.389Z,101437.08
2022-12-18T02:45:27.967Z,101434.42
2022-12-18T02:47:40.205Z,101429.88
2022-12-18T02:50:00.832Z,101431.19
2022-12-18T02:52:21.461Z,101432.75
2022-12-18T02:54:46.027Z,101440.16
2022-12-18T02:56:58.795Z,101440.29
2022-12-18T02:59:16.477Z,101441.90
2022-12-18T03:01:36.437Z,101438.70
2022-12-18T03:03:50.597Z,101441.13
2022-12-18T03:06:03.119Z,101448.27
2022-12-18T03:08:17.447Z,101447.06
2022-12-18T03:10:31.693Z,101443.77
2022-12-18T03:12:47.468Z,101446.20
2022-12-18T03:15:02.751Z,101438.77
2022-12-18T03:17:18.629Z,101442.39
2022-12-18T03:19:32.305Z,101445.52
2022-12-18T03:21:48.410Z,101441.66
2022-12-18T03:24:00.058Z,101445.20
2022-12-18T03:26:13.310Z,101441.39
2022-12-18T03:28:25.580Z,101437.95
2022-12-18T03:30:43.514Z,101437.93
2022-12-18T03:33:00.199Z,101439.48
2022-12-18T03:35:14.065Z,101433.83
2022-12-18T03:37:24.133Z,101431.75
2022-12-18T03:39:37.379Z,101429.44
2022-12-18T03:41:52.636Z,101426.86
2022-12-18T03:44:18.917Z,101426.89
2022-12-18T03:46:35.426Z,101426.92
2022-12-18T03:48:51.694Z,101432.35
2022-12-18T03:51:08.412Z,101432.35
2022-12-18T03:53:29.663Z,101429.91
2022-12-18T03:55:40.647Z,101428.63
2022-12-18T03:57:52.549Z,101425.88
2022-12-18T04:00:07.080Z,101427.42
2022-12-18T04:02:26.604Z,101425.12
2022-12-18T04:04:40.977Z,101425.68
2022-12-18T04:06:53.222Z,101417.27
2022-12-18T04:09:01.501Z,101413.39
2022-12-18T04:11:13.050Z,101412.92
2022-12-18T04:13:30.979Z,101407.21
2022-12-18T04:15:43.638Z,101404.48
2022-12-18T04:17:56.277Z,101407.55
2022-12-18T04:20:07.415Z,101410.08
2022-12-18T04:22:19.188Z,101406.38
2022-12-18T04:24:31.200Z,101401.41
2022-12-18T04:26:53.101Z,101394.39
2022-12-18T04:29:09.324Z,101391.99
2022-12-18T04:31:19.287Z,101394.36
2022-12-18T04:33:30.412Z,101396.61
2022-12-18T04:35:41.004Z,101400.21
2022-12-18T04:37:50.834Z,101400.89
2022-12-18T04:40:00.770Z,101400.52
2022-12-18T04:42:16.961Z,101408.34
2022-12-18T04:44:26.707Z,101411.46
2022-12-18T04:46:36.517Z,101414.06
2022-12-18T04:48:48.136Z,101406.90
2022-12-18T04:50:58.100Z,101404.41
2022-12-18T04:53:07.909Z,101402.24
2022-12-18T04:55:18.161Z,101402.70
2022-12-18T04:57:27.863Z,101393.52
2022-12-18T04:59:37.483Z,101394.31
2022-12-18T05:01:47.372Z,101396.29
2022-12-18T05:03:57.672Z,101401.36
2022-12-18T05:06:07.919Z,101405.45
2022-12-18T05:08:17.875Z,101409.73
2022-12-18T05:10:27.850Z,101409.16
2022-12-18T05:13:01.423Z,101408.71
2022-12-18T05:15:12.818Z,101412.59
2022-12-18T05:17:22.634Z,101413.85
2022-12-18T05:19:32.784Z,101412.58
2022-12-18T05:21:42.356Z,101414.95
2022-12-18T05:23:52.553Z,101414.24
2022-12-18T05:26:05.470Z,101412.10
2022-12-18T05:28:15.066Z,101415.58
2022-12-18T05:30:25.016Z,101414.04
2022-12-18T05:32:34.541Z,101410.25
2022-12-18T05:34:44.419Z,101408.91
2022-12-18T05:36:53.981Z,101411.39
2022-12-18T05:39:03.540Z,101409.12
2022-12-18T05:41:16.588Z,101411.39
2022-12-18T05:43:28.251Z,101413.52
2022-12-18T05:45:39.374Z,101411.21
2022-12-18T05:47:49.054Z,101403.68
2022-12-18T05:49:58.597Z,101403.65
2022-12-18T05:52:08.589Z,101404.60
2022-12-18T05:54:18.388Z,101405.64
2022-12-18T05:56:28.128Z,101408.26
2022-12-18T05:58:38.086Z,101405.98
2022-12-18T06:00:48.872Z,101405.84
2022-12-18T06:02:58.560Z,101408.02
2022-12-18T06:05:10.413Z,101404.48
2022-12-18T06:07:20.435Z,101407.55
2022-12-18T06:09:30.201Z,101410.96
2022-12-18T06:11:40.251Z,101409.55
2022-12-18T06:13:56.316Z,101413.52
2022-12-18T06:16:10.035Z,101413.30
2022-12-18T06:18:19.885Z,101411.93
2022-12-18T06:20:35.057Z,101407.69
2022-12-18T06:22:44.996Z,101405.88
2022-12-18T06:24:54.849Z,101406.46
2022-12-18T06:27:05.006Z,101405.86
2022-12-18T06:29:14.882Z,101406.17
2022-12-18T06:31:24.649Z,101408.55
2022-12-18T06:33:34.892Z,101406.89
2022-12-18T06:35:44.896Z,101410.29
2022-12-18T06:37:55.191Z,101409.48
2022-12-18T06:40:04.824Z,101411.79
2022-12-18T06:42:14.644Z,101412.79
2022-12-18T06:44:25.001Z,101415.06
2022-12-18T06:46:35.688Z,101415.95
2022-12-18T06:48:45.315Z,101413.30
2022-12-18T06:50:54.914Z,101414.55
2022-12-18T06:53:04.608Z,101414.01
2022-12-18T06:55:15.139Z,101412.50
2022-12-18T06:57:24.774Z,101406.50
2022-12-18T06:59:35.299Z,101410.27
2022-12-18T07:01:45.263Z,101410.92
2022-12-18T07:03:59.339Z,101411.65
2022-12-18T07:06:15.974Z,101407.42
2022-12-18T07:08:26.076Z,101408.14
2022-12-18T07:10:35.856Z,101401.42
2022-12-18T07:12:45.804Z,101398.29
2022-12-18T07:14:56.804Z,101394.86
2022-12-18T07:17:06.678Z,101396.30
2022-12-18T07:19:16.629Z,101401.39
2022-12-18T07:21:27.850Z,101401.06
2022-12-18T07:23:39.859Z,101398.70
2022-12-18T07:25:50.257Z,101395.09
2022-12-18T07:28:01.226Z,101394.20
2022-12-18T07:30:13.924Z,101399.45
2022-12-18T07:32:23.891Z,101404.69
2022-12-18T07:34:33.849Z,101405.55
2022-12-18T07:36:43.912Z,101411.59
2022-12-18T07:38:54.588Z,101412.62
2022-12-18T07:41:08.816Z,101407.92
2022-12-18T07:43:18.858Z,101407.56
2022-12-18T07:45:29.287Z,101409.75
2022-12-18T07:47:42.578Z,101414.14
2022-12-18T07:49:52.509Z,101418.40
2022-12-18T07:52:03.128Z,101419.89
2022-12-18T07:54:13.047Z,101419.27
2022-12-18T07:56:28.070Z,101416.43
2022-12-18T07:58:38.923Z,101412.45
2022-12-18T08:00:48.541Z,101411.83
2022-12-18T08:02:58.541Z,101407.91
2022-12-18T08:05:09.160Z,101408.23
2022-12-18T08:07:19.299Z,101406.23
2022-12-18T08:09:29.581Z,101403.61
2022-12-18T08:11:39.422Z,101402.02
2022-12-18T08:13:49.467Z,101398.46
2022-12-18T08:16:04.496Z,101388.98
2022-12-18T08:18:14.557Z,101394.83
2022-12-18T08:20:24.693Z,101393.83
2022-12-18T08:22:44.410Z,101395.45
2022-12-18T08:24:54.266Z,101392.52
2022-12-18T08:27:28.248Z,101387.47
2022-12-18T08:29:35.138Z,101384.16
2022-12-18T08:31:45.256Z,101385.61
2022-12-18T08:33:55.991Z,101386.05
2022-12-18T08:36:08.472Z,101384.53
2022-12-18T08:38:18.206Z,101384.52
2022-12-18T08:40:28.048Z,101380.08
2022-12-18T08:42:56.367Z,101380.23
2022-12-18T08:45:06.274Z,101379.91
2022-12-18T08:47:16.516Z,101382.53
2022-12-18T08:49:26.283Z,101383.84
2022-12-18T08:51:36.543Z,101385.52
2022-12-18T08:53:47.184Z,101385.80
2022-12-18T08:55:56.948Z,101381.08
2022-12-18T08:58:06.672Z,101377.45
2022-12-18T09:00:18.678Z,101382.93
2022-12-18T09:02:28.658Z,101382.77
2022-12-18T09:04:38.342Z,101380.62
2022-12-18T09:06:48.615Z,101375.02
2022-12-18T09:09:00.059Z,101373.86
2022-12-18T09:11:17.799Z,101370.14
2022-12-18T09:13:27.819Z,101365.13
2022-12-18T09:15:42.903Z,101367.02
2022-12-18T09:17:54.276Z,101366.28
2022-12-18T09:20:03.950Z,101360.39
2022-12-18T09:22:13.385Z,101360.92
2022-12-18T09:24:22.935Z,101357.58
2022-12-18T09:26:32.574Z,101359.30
2022-12-18T09:28:42.635Z,101357.95
2022-12-18T09:30:53.525Z,101352.25
2022-12-18T09:33:03.553Z,101353.25
2022-12-18T09:35:14.019Z,101351.81
2022-12-18T09:37:23.719Z,101351.89
2022-12-18T09:39:33.578Z,101345.55
2022-12-18T09:41:48.644Z,101348.39
2022-12-18T09:44:03.383Z,101347.11
2022-12-18T09:46:14.936Z,101342.73
2022-12-18T09:48:29.268Z,101350.60
2022-12-18T09:50:42.774Z,101346.83
2022-12-18T09:52:56.095Z,101347.27
2022-12-18T09:55:09.029Z,101347.04
2022-12-18T09:57:22.436Z,101343.90
2022-12-18T09:59:38.316Z,101344.18
2022-12-18T10:01:48.192Z,101341.32
2022-12-18T10:03:59.210Z,101341.19
2022-12-18T10:06:16.442Z,101342.30
2022-12-18T10:08:33.067Z,101344.73
2022-12-18T10:10:49.075Z,101348.60
2022-12-18T10:13:05.976Z,101347.58
2022-12-18T10:15:26.930Z,101354.11
2022-12-18T10:17:44.912Z,101349.39
2022-12-18T10:19:59.389Z,101353.37
2022-12-18T10:22:21.895Z,101354.16
2022-12-18T10:24:42.564Z,101358.77
2022-12-18T10:26:52.714Z,101357.14
2022-12-18T10:29:05.713Z,101353.45
2022-12-18T10:31:22.081Z,101355.88
2022-12-18T10:33:35.843Z,101354.80
2022-12-18T10:35:46.547Z,101359.98
2022-12-18T10:38:26.610Z,101362.30
2022-12-18T10:40:50.607Z,101362.84
2022-12-18T10:43:14.477Z,101364.57
2022-12-18T10:45:23.975Z,101360.98
2022-12-18T10:47:33.544Z,101358.12
2022-12-18T10:49:50.664Z,101357.31
2022-12-18T10:52:17.896Z,101359.86
2022-12-18T10:54:30.741Z,101359.71
2022-12-18T10:56:40.882Z,101360.17
2022-12-18T10:59:00.783Z,101358.86
2022-12-18T11:01:14.184Z,101357.67
2022-12-18T11:03:38.101Z,101359.39
2022-12-18T11:05:48.349Z,101366.55
2022-12-18T11:07:58.419Z,101358.05
2022-12-18T11:10:18.841Z,101357.28
2022-12-18T11:12:30.954Z,101347.46
2022-12-18T11:14:47.345Z,101344.89
2022-12-18T11:17:28.198Z,101343.97
2022-12-18T11:19:37.008Z,101337.84
2022-12-18T11:21:47.153Z,101337.35
2022-12-18T11:23:58.051Z,101333.39
2022-12-18T11:26:08.721Z,101331.64
2022-12-18T11:28:37.499Z,101330.05
2022-12-18T11:30:47.978Z,101327.80
2022-12-18T11:33:02.603Z,101326.48
2022-12-18T11:35:24.842Z,101322.66
2022-12-18T11:37:35.535Z,101315.58
2022-12-18T11:39:50.084Z,101312.19
2022-12-18T11:42:14.206Z,101308.97
2022-12-18T11:44:29.319Z,101310.25
2022-12-18T11:46:46.530Z,101311.96
2022-12-18T11:49:01.598Z,101312.77
2022-12-18T11:51:17.581Z,101312.95
2022-12-18T11:53:29.179Z,101311.77
2022-12-18T11:55:46.981Z,101309.06
2022-12-18T11:58:07.100Z,101307.84
2022-12-18T12:00:20.945Z,101305.21
2022-12-18T12:06:24.752Z,101299.08
2022-12-18T12:08:43.530Z,101297.13
2022-12-18T12:11:04.538Z,101293.86
2022-12-18T12:13:27.667Z,101294.85
2022-12-18T12:15:48.074Z,101293.84
2022-12-18T12:18:09.593Z,101288.52
2022-12-18T12:20:30.539Z,101288.52
2022-12-18T12:22:52.787Z,101290.80
2022-12-18T12:25:29.755Z,101288.96
2022-12-18T12:27:49.792Z,101288.19
2022-12-18T12:30:10.303Z,101285.30
2022-12-18T12:32:33.558Z,101285.09
2022-12-18T12:34:59.591Z,101280.95
2022-12-18T12:37:25.214Z,101285.63
2022-12-18T12:39:38.706Z,101284.69
2022-12-18T12:42:07.772Z,101278.47
2022-12-18T12:44:24.858Z,101280.92
2022-12-18T12:46:40.676Z,101275.37
2022-12-18T12:48:53.133Z,101272.84
2022-12-18T12:51:01.780Z,101273.77
2022-12-18T12:53:20.316Z,101269.36
2022-12-18T12:55:31.400Z,101269.39
2022-12-18T12:57:41.616Z,101265.92
2022-12-18T13:00:00.958Z,101260.27
2022-12-18T13:02:19.109Z,101253.79
2022-12-18T13:04:37.856Z,101256.49
2022-12-18T13:06:54.988Z,101254.65
2022-12-18T13:09:06.501Z,101254.70
2022-12-18T13:11:49.126Z,101256.83
2022-12-18T13:14:01.492Z,101254.54
2022-12-18T13:16:12.849Z,101252.30
2022-12-18T13:18:27.128Z,101250.88
2022-12-18T13:20:41.065Z,101246.96
2022-12-18T13:22:52.756Z,101248.06
2022-12-18T13:25:02.858Z,101248.73
2022-12-18T13:27:58.594Z,101247.77
2022-12-18T13:30:55.552Z,101244.98
2022-12-18T13:36:36.308Z,101244.84
2022-12-18T13:38:47.024Z,101250.45
2022-12-18T13:41:01.352Z,101247.11
2022-12-18T13:43:39.451Z,101246.63
2022-12-18T13:46:20.421Z,101244.45
2022-12-18T13:48:32.586Z,101241.29
2022-12-18T13:50:43.929Z,101240.64
2022-12-18T13:52:55.706Z,101232.92
2022-12-18T13:55:08.389Z,101233.42
2022-12-18T13:57:32.199Z,101233.91
2022-12-18T13:59:42.852Z,101233.73
2022-12-18T14:01:57.594Z,101231.89
2022-12-18T14:04:22.310Z,101228.31
2022-12-18T14:06:33.092Z,101231.33
2022-12-18T14:08:46.095Z,101233.12
2022-12-18T14:10:56.304Z,101238.05
2022-12-18T14:13:11.599Z,101239.02
2022-12-18T14:15:30.393Z,101236.73
2022-12-18T14:17:42.048Z,101233.05
2022-12-18T14:19:53.631Z,101234.94
2022-12-18T14:22:03.329Z,101238.84
2022-12-18T14:24:19.911Z,101237.57
2022-12-18T14:26:31.781Z,101237.31
2022-12-18T14:28:48.397Z,101239.25
2022-12-18T14:30:58.901Z,101234.56
2022-12-18T14:33:13.192Z,101230.34
2022-12-18T14:35:24.389Z,101236.83
2022-12-18T14:37:34.026Z,101233.52
2022-12-18T14:39:54.604Z,101231.92
2022-12-18T14:42:04.555Z,101226.83
2022-12-18T14:44:17.260Z,101226.40
2022-12-18T14:46:40.237Z,101226.59
2022-12-18T14:48:52.604Z,101227.20
2022-12-18T14:51:04.620Z,101220.55
2022-12-18T14:53:22.658Z,101223.59
2022-12-18T14:55:32.561Z,101218.73
2022-12-18T14:57:44.762Z,101221.30
2022-12-18T14:59:55.571Z,101218.83
2022-12-18T15:02:13.186Z,101220.81
2022-12-18T15:04:33.814Z,101218.29
2022-12-18T15:06:44.263Z,101217.97
2022-12-18T15:08:54.575Z,101214.44
2022-12-18T15:11:07.741Z,101215.54
2022-12-18T15:13:27.509Z,101213.25
2022-12-18T15:15:53.951Z,101213.73
2022-12-18T15:18:05.420Z,101210.88
2022-12-18T15:20:16.123Z,101213.04
2022-12-18T15:22:29.057Z,101216.77
2022-12-18T15:24:39.156Z,101215.94
2022-12-18T15:26:49.228Z,101217.68
2022-12-18T15:28:59.947Z,101213.58
2022-12-18T15:31:28.207Z,101213.24
2022-12-18T15:33:39.582Z,101218.39
2022-12-18T15:35:48.457Z,101219.17
2022-12-18T15:37:58.091Z,101221.58
2022-12-18T15:40:09.045Z,101219.52
2022-12-18T15:42:36.112Z,101224.06
2022-12-18T15:44:49.960Z,101222.13
2022-12-18T15:46:59.943Z,101217.86
2022-12-18T15:49:10.791Z,101221.09
2022-12-18T15:51:23.141Z,101222.96
2022-12-18T15:53:35.654Z,101231.36
2022-12-18T15:56:02.326Z,101231.66
2022-12-18T15:58:14.435Z,101230.55
2022-12-18T16:00:25.678Z,101234.25
2022-12-18T16:02:35.455Z,101236.66
2022-12-18T16:04:47.110Z,101238.45
2022-12-18T16:07:14.434Z,101242.25
2022-12-18T16:09:26.339Z,101244.09
2022-12-18T16:11:42.060Z,101244.14
2022-12-18T16:13:52.059Z,101244.92
2022-12-18T16:16:01.799Z,101247.44
2022-12-18T16:18:11.662Z,101248.85
2022-12-18T16:20:23.327Z,101245.27
2022-12-18T16:22:33.698Z,101247.76
2022-12-18T16:24:44.150Z,101253.10
2022-12-18T16:26:54.816Z,101256.20
2022-12-18T16:29:04.490Z,101262.05
2022-12-18T16:31:14.970Z,101258.10
2022-12-18T16:33:24.952Z,101263.73
2022-12-18T16:35:35.136Z,101265.81
2022-12-18T16:37:45.913Z,101264.63
2022-12-18T16:39:55.917Z,101271.58
2022-12-18T16:42:06.377Z,101274.60
2022-12-18T16:44:16.554Z,101275.27
2022-12-18T16:46:26.103Z,101280.25
2022-12-18T16:48:38.575Z,101279.89
2022-12-18T16:50:48.486Z,101283.55
2022-12-18T16:52:58.404Z,101286.13
2022-12-18T16:55:09.474Z,101289.66
2022-12-18T16:57:21.523Z,101297.27
2022-12-18T16:59:33.605Z,101298.43
2022-12-18T17:01:44.767Z,101297.55
2022-12-18T17:03:59.323Z,101298.36
2022-12-18T17:06:10.612Z,101304.57
2022-12-18T17:08:21.349Z,101308.95
2022-12-18T17:10:31.286Z,101309.21
2022-12-18T17:12:41.362Z,101308.85
2022-12-18T17:14:51.300Z,101314.02
2022-12-18T17:17:24.264Z,101315.31
2022-12-18T17:19:32.049Z,101314.41
2022-12-18T17:21:42.248Z,101315.18
2022-12-18T17:23:52.337Z,101312.70
2022-12-18T17:26:02.418Z,101317.10
2022-12-18T17:28:12.438Z,101313.43
2022-12-18T17:30:23.956Z,101316.13
2022-12-18T17:32:33.890Z,101315.50
2022-12-18T17:34:43.973Z,101318.14
2022-12-18T17:36:54.133Z,101313.04
2022-12-18T17:39:05.802Z,101317.42
2022-12-18T17:41:15.829Z,101311.90
2022-12-18T17:43:26.285Z,101318.19
2022-12-18T17:45:36.789Z,101318.98
2022-12-18T17:47:46.638Z,101322.91
2022-12-18T17:49:56.433Z,101322.46
2022-12-18T17:52:07.105Z,101324.73
2022-12-18T17:54:17.251Z,101328.84
2022-12-18T17:56:27.802Z,101326.14
2022-12-18T17:58:38.930Z,101319.30
2022-12-18T18:00:49.265Z,101317.55
2022-12-18T18:02:59.342Z,101314.02
2022-12-18T18:05:12.287Z,101311.55
2022-12-18T18:07:23.830Z,101305.17
2022-12-18T18:09:34.068Z,101308.60
2022-12-18T18:12:00.979Z,101312.82
2022-12-18T18:14:13.683Z,101311.90
2022-12-18T18:16:23.247Z,101309.36
2022-12-18T18:18:33.696Z,101309.64
2022-12-18T18:20:45.050Z,101312.77
2022-12-18T18:22:54.769Z,101309.89
2022-12-18T18:25:05.121Z,101307.03
2022-12-18T18:27:15.416Z,101305.23
2022-12-18T18:29:27.881Z,101302.44
2022-12-18T18:31:41.212Z,101302.05
2022-12-18T18:33:51.651Z,101304.58
2022-12-18T18:36:01.780Z,101305.42
2022-12-18T18:38:11.502Z,101308.37
2022-12-18T18:40:21.769Z,101311.57
2022-12-18T18:42:32.009Z,101306.72
2022-12-18T18:44:47.191Z,101307.20
2022-12-18T18:46:59.723Z,101308.02
2022-12-18T18:49:11.548Z,101308.41
2022-12-18T18:51:22.342Z,101308.06
2022-12-18T18:53:32.177Z,101308.13
2022-12-18T18:55:41.744Z,101305.85
2022-12-18T18:57:51.486Z,101304.78
2022-12-18T19:00:01.496Z,101302.25
2022-12-18T19:02:13.729Z,101301.94
2022-12-18T19:04:23.572Z,101297.32
2022-12-18T19:06:33.435Z,101300.08
2022-12-18T19:08:44.284Z,101302.05
2022-12-18T19:10:57.961Z,101300.50
2022-12-18T19:13:23.302Z,101294.59
2022-12-18T19:15:32.869Z,101295.39
2022-12-18T19:17:42.632Z,101297.20
2022-12-18T19:19:56.987Z,101298.21
2022-12-18T19:22:06.875Z,101298.84
2022-12-18T19:24:16.843Z,101296.66
2022-12-18T19:26:28.483Z,101296.91
2022-12-18T19:28:39.070Z,101298.07
2022-12-18T19:30:49.028Z,101293.98
2022-12-18T19:33:14.724Z,101294.32
2022-12-18T19:35:33.223Z,101289.73
2022-12-18T19:37:43.333Z,101293.72
2022-12-18T19:39:53.113Z,101290.84
2022-12-18T19:42:04.734Z,101286.71
2022-12-18T19:44:15.684Z,101281.38
2022-12-18T19:46:26.608Z,101274.27
2022-12-18T19:48:37.126Z,101268.14
2022-12-18T19:50:47.459Z,101265.61
2022-12-18T19:52:57.607Z,101264.91
2022-12-18T19:55:08.203Z,101257.73
2022-12-18T19:57:18.360Z,101263.21
2022-12-18T19:59:28.254Z,101261.14
2022-12-18T20:01:38.104Z,101249.83
2022-12-18T20:03:51.848Z,101242.89
2022-12-18T20:06:12.648Z,101236.90
2022-12-18T20:08:23.087Z,101236.23
2022-12-18T20:10:33.693Z,101233.07
2022-12-18T20:12:43.681Z,101232.77
2022-12-18T20:14:53.658Z,101230.59
2022-12-18T20:17:03.444Z,101227.86
2022-12-18T20:19:14.966Z,101222.73
2022-12-18T20:21:26.092Z,101219.86
2022-12-18T20:23:35.905Z,101217.45
2022-12-18T20:25:47.245Z,101223.10
2022-12-18T20:27:58.571Z,101223.83
2022-12-18T20:30:09.927Z,101221.72
2022-12-18T20:32:19.916Z,101223.05
2022-12-18T20:34:30.014Z,101218.84
2022-12-18T20:36:41.058Z,101222.69
2022-12-18T20:38:51.495Z,101220.70
2022-12-18T20:41:08.680Z,101221.13
2022-12-18T20:43:19.066Z,101217.48
2022-12-18T20:45:29.882Z,101217.44
2022-12-18T20:47:39.640Z,101215.73
2022-12-18T20:49:49.702Z,101215.62
2022-12-18T20:52:00.069Z,101214.29
2022-12-18T20:54:11.954Z,101214.02
2022-12-18T20:56:21.907Z,101213.92
2022-12-18T20:58:31.728Z,101205.41
2022-12-18T21:00:41.486Z,101200.36
2022-12-18T21:02:51.454Z,101201.39
2022-12-18T21:05:01.870Z,101194.80
2022-12-18T21:07:11.619Z,101195.55
2022-12-18T21:09:21.417Z,101189.37
2022-12-18T21:11:50.555Z,101190.61
2022-12-18T21:14:00.615Z,101190.94
2022-12-18T21:16:11.069Z,101197.36
2022-12-18T21:18:20.911Z,101198.55
2022-12-18T21:20:30.639Z,101194.77
2022-12-18T21:22:40.901Z,101184.08
2022-12-18T21:24:50.697Z,101179.16
2022-12-18T21:27:00.687Z,101177.86
2022-12-18T21:29:13.484Z,101177.16
2022-12-18T21:31:24.094Z,101170.39
2022-12-18T21:33:33.926Z,101162.25
2022-12-18T21:35:44.081Z,101156.37
2022-12-18T21:37:53.973Z,101157.57
2022-12-18T21:40:04.164Z,101158.08
2022-12-18T21:42:32.125Z,101157.05
2022-12-18T21:44:42.899Z,101156.27
2022-12-18T21:46:59.814Z,101158.55
2022-12-18T21:49:15.308Z,101155.03
2022-12-18T21:51:25.250Z,101149.58
2022-12-18T21:53:35.098Z,101156.25
2022-12-18T21:55:45.126Z,101150.25
2022-12-18T21:57:55.489Z,101150.52
2022-12-18T22:00:05.843Z,101153.63
2022-12-18T22:02:23.376Z,101156.90
2022-12-18T22:04:33.401Z,101150.09
2022-12-18T22:06:44.205Z,101153.83
2022-12-18T22:08:54.411Z,101148.48
2022-12-18T22:11:04.221Z,101148.44
2022-12-18T22:13:14.328Z,101148.18
2022-12-18T22:15:24.799Z,101155.09
2022-12-18T22:17:34.937Z,101158.66
2022-12-18T22:19:44.590Z,101157.14
2022-12-18T22:21:55.556Z,101157.55
2022-12-18T22:24:07.376Z,101158.70
2022-12-18T22:26:17.500Z,101156.23
2022-12-18T22:28:44.426Z,101151.17
2022-12-18T22:30:56.357Z,101153.89
2022-12-18T22:33:09.664Z,101151.02
2022-12-18T22:35:19.545Z,101149.16
2022-12-18T22:37:29.119Z,101144.98
2022-12-18T22:39:40.412Z,101142.52
2022-12-18T22:41:50.663Z,101137.59
2022-12-18T22:44:00.398Z,101141.79
2022-12-18T22:46:14.804Z,101145.72
2022-12-18T22:48:24.311Z,101144.24
2022-12-18T22:50:34.129Z,101150.94
2022-12-18T22:52:44.320Z,101151.87
2022-12-18T22:54:54.210Z,101147.91
2022-12-18T22:57:04.214Z,101146.20
2022-12-18T22:59:19.947Z,101149.64
2022-12-18T23:01:31.167Z,101154.34
2022-12-18T23:03:42.591Z,101150.35
2022-12-18T23:05:52.558Z,101156.27
2022-12-18T23:08:02.279Z,101167.91
2022-12-18T23:10:13.376Z,101168.84
2022-12-18T23:12:23.211Z,101170.31
2022-12-18T23:14:33.607Z,101169.66
2022-12-18T23:16:43.843Z,101171.02
2022-12-18T23:18:59.369Z,101178.11
2022-12-18T23:21:10.408Z,101179.06
2022-12-18T23:23:22.808Z,101185.33
2022-12-18T23:25:32.459Z,101190.25
2022-12-18T23:27:42.260Z,101196.56
2022-12-18T23:29:51.939Z,101190.58
2022-12-18T23:32:02.594Z,101200.19
2022-12-18T23:34:14.239Z,101201.05
2022-12-18T23:36:24.609Z,101198.61
2022-12-18T23:38:35.688Z,101193.63
2022-12-18T23:40:46.697Z,101192.31
2022-12-18T23:42:58.164Z,101200.73
2022-12-18T23:45:17.383Z,101195.70
2022-12-18T23:47:28.614Z,101192.52
2022-12-18T23:49:38.554Z,101192.46
2022-12-18T23:51:48.607Z,101192.37
2022-12-18T23:54:00.638Z,101199.02
2022-12-18T23:56:09.204Z,101198.20
2022-12-18T23:58:22.879Z,101202.41
